»·PEaware :: N55NT KPSP-KVGT

N55NT :: KPSP-KVGT

FLIGHT INFORMATION

Flight Status: Arrived
Operator: Privately registered:
United States
More flights under this callsign
Pilot: Craig H. (6968)
Aircraft: SOCATA TBM-900
(TBM9)
More flights by this aircraft type
Origin: KPSP Palm Springs Intl
United States
Destination: KVGT North Las Vegas
United States
More flights between these airports :: More routes between these airports
Route: +CATH1 PSP V370 TNP JOTNU ZELMA WHIGG BLD
File this flight plan on PilotEdge
Remarks:
Altitude:
(Current/Filed)
26,000ft
Speed:
(Current/Filed)
250kts
Departed: 13-May-19 12:56 PM
Arrived: 13-May-19 01:46 PM
Distance/Time
Traveled:
157nm/0:50
Distance/Time
To Go:
Arrived

Flight Plot

Page will automatically refresh every two minutes.


Map Options




Map Legend


Flown Route
Filed Route
Departure Airport
Arrival Airport
Navaid (VOR, NDB)
Fix

Horizontal Profiles

Position Reports

Time Latitude Longitude Heading Altitude Ground
Speed
13-May-19 12:38 33.823446 -116.497667 54 480ft 0kts
13-May-19 12:39 33.823446 -116.497667 54 480ft 0kts
13-May-19 12:40 33.823446 -116.497667 54 480ft 0kts
13-May-19 12:41 33.823446 -116.497667 54 480ft 0kts
13-May-19 12:42 33.823446 -116.497667 54 480ft 0kts
13-May-19 12:43 33.823446 -116.497667 54 480ft 0kts
13-May-19 12:44 33.823446 -116.497667 54 480ft 0kts
13-May-19 12:45 33.823446 -116.497667 54 480ft 0kts
13-May-19 12:46 33.823446 -116.497667 54 480ft 0kts
13-May-19 12:47 33.823446 -116.497667 54 480ft 0kts
13-May-19 12:48 33.823446 -116.497667 54 480ft 0kts
13-May-19 12:49 33.823446 -116.497667 54 480ft 0kts
13-May-19 12:50 33.823553 -116.497667 301 480ft 3kts
13-May-19 12:51 33.823199 -116.497832 137 480ft 6kts
13-May-19 12:52 33.821941 -116.496734 144 480ft 0kts
13-May-19 12:53 33.820278 -116.495469 198 480ft 13kts
13-May-19 12:54 33.819007 -116.497488 244 480ft 7kts
13-May-19 12:55 33.830506 -116.508582 321 605ft 136kts
13-May-19 12:56 33.859382 -116.536798 322 2741ft 144kts
13-May-19 12:57 33.893460 -116.569267 330 4667ft 157kts
13-May-19 12:58 33.909618 -116.537781 116 6730ft 158kts
13-May-19 12:59 33.891588 -116.489071 115 8712ft 163kts
13-May-19 13:00 33.873517 -116.439399 115 10822ft 166kts
13-May-19 13:01 33.852553 -116.388736 119 12788ft 169kts
13-May-19 13:02 33.851608 -116.330438 57 14119ft 189kts
13-May-19 13:03 33.877049 -116.279476 61 16258ft 183kts
13-May-19 13:04 33.902225 -116.225664 61 18172ft 187kts
13-May-19 13:05 33.928059 -116.169943 61 20034ft 195kts
13-May-19 13:06 33.954740 -116.112265 60 21887ft 201kts
13-May-19 13:07 33.983104 -116.050861 60 23029ft 236kts
13-May-19 13:08 34.018697 -115.973619 60 23368ft 270kts
13-May-19 13:09 34.051712 -115.901838 59 25012ft 257kts
13-May-19 13:10 34.089567 -115.819369 60 25013ft 294kts
13-May-19 13:11 34.139400 -115.739246 41 24996ft 306kts
13-May-19 13:12 34.202430 -115.668617 41 24996ft 309kts
13-May-19 13:13 34.265784 -115.597299 41 25001ft 311kts
13-May-19 13:14 34.330183 -115.527552 25 24959ft 311kts
13-May-19 13:15 34.411052 -115.492514 18 25000ft 310kts
13-May-19 13:16 34.492325 -115.457146 18 25000ft 310kts
13-May-19 13:17 34.573060 -115.421931 19 25000ft 310kts
13-May-19 13:18 34.654711 -115.386236 19 25000ft 310kts
13-May-19 13:19 34.735950 -115.350650 19 24999ft 310kts
13-May-19 13:20 34.820168 -115.339526 347 24582ft 322kts
13-May-19 13:21 34.910205 -115.363558 347 23161ft 337kts
13-May-19 13:22 35.004084 -115.388547 348 20722ft 351kts
13-May-19 13:23 35.100304 -115.414209 348 18179ft 345kts
13-May-19 13:24 35.187762 -115.437575 348 15338ft 306kts
13-May-19 13:25 35.268825 -115.459296 348 14036ft 312kts
13-May-19 13:26 35.354288 -115.482248 348 12394ft 311kts
13-May-19 13:27 35.438000 -115.504776 348 10925ft 306kts
13-May-19 13:28 35.518040 -115.506518 41 10050ft 286kts
13-May-19 13:29 35.571599 -115.438123 48 10061ft 272kts
13-May-19 13:30 35.622440 -115.369857 48 10036ft 270kts
13-May-19 13:31 35.673089 -115.301621 48 10035ft 269kts
13-May-19 13:32 35.723713 -115.233274 48 10035ft 269kts
13-May-19 13:33 35.774087 -115.165141 48 10033ft 269kts
13-May-19 13:34 35.824646 -115.096613 48 10026ft 270kts
13-May-19 13:35 35.875157 -115.027996 48 10020ft 270kts
13-May-19 13:36 35.933211 -114.975641 1 10044ft 269kts
13-May-19 13:37 36.008557 -114.973146 1 10027ft 271kts
13-May-19 13:38 36.084582 -114.970530 1 9604ft 285kts
13-May-19 13:39 36.163706 -114.978231 337 8106ft 287kts
13-May-19 13:40 36.210861 -115.041767 305 6194ft 238kts
13-May-19 13:41 36.258771 -115.094075 315 4524ft 227kts
13-May-19 13:42 36.266434 -115.165184 253 3895ft 219kts
13-May-19 13:43 36.243041 -115.219946 199 3060ft 121kts
13-May-19 13:44 36.217268 -115.205954 130 2282ft 89kts
13-May-19 13:45 36.208031 -115.195306 228 2208ft 0kts
13-May-19 13:46 36.209880 -115.197770 313 2208ft 16kts
13-May-19 13:48 36.209900 -115.199230 325 2208ft 1kts
13-May-19 13:49 36.209955 -115.199293 314 2208ft 0kts
13-May-19 13:50 36.209955 -115.199293 314 2208ft 0kts
13-May-19 13:51 36.209955 -115.199293 314 2208ft 0kts

Navigation Log

Ident Type
Flight plan parsing failed, navigation log unavailable